Dollar Bay, MI (49922)

4:51 AM EDT on July 25, 2016 (GMT -0400)
Forsman Road | | Change Station

Elev 1116 ft 47.15 °N, 88.52 °W | Updated 2 seconds ago

Clear
Clear
65.4 °F
Feels Like 65.4 °F
N
3.0
Wind Variable Wind from WNW
Gusts 14.0 mph

Today
High -- | Low -- °F
--% Chance of Precip.
Yesterday
High -- | Low -- °F
Precip. -- in
Pressure 29.81 in
Visibility 10.0 miles
Clouds Clear
Dew Point 61 °F
Humidity 85%
Rainfall 0.00 in
Snow Depth Not available.
6:25 AM 9:35 PM
Waning Gibbous, 68% visible
METAR KCMX 250753Z AUTO 27008KT 10SM CLR 19/15 A2982 RMK AO2 SLP094 T01890150
Pressure 29.81 in
Visibility 10.0 miles
Clouds Clear
Dew Point 61 °F
Humidity 85%
Rainfall 0.00 in
Snow Depth Not available.
6:25 AM 9:35 PM
Waning Gibbous, 68% visible
METAR KCMX 250753Z AUTO 27008KT 10SM CLR 19/15 A2982 RMK AO2 SLP094 T01890150

10-Day Weather Forecast

Almanac

Astronomy

Jul. 25, 2016 Rise Set
Actual Time
Civil Twilight
Nautical Twilight
Astronomical Twilight
Moon
Length of Visible Light
Length of Day
Tomorrow will be .
, % of the Moon is Illuminated

Today's Extremes

State Highs State Lows

Community

WunderPhotos

Upload Photos

1,927,274 photos uploaded!

WunderBlog® & News

Nearby

Air Quality

  Air Quality AQ Index Pollutant
Not available.

Snow Depth

Station Depth Elevation

Earthquake Activity

City Distance Mag. Time & Date
Minimum magnitude displayed is 2.5.

Coastal Water Temperatures

Place Temperature

Stations

Nearby Weather Stations

Station Location Temp. Windchill Dew Point Humidity Wind Precip. Elev Updated Type
                   

Watches & Warnings

There are currently no watches in effect.